Weather History for Brownwood, TX

Change the Weather History Date:

Tuesday, November 6, 2012

  Actual Average (KABI) Record (KABI)
Temperature  
Mean Temperature 58 °F 59 °F  
Max Temperature 78 °F 70 °F 88 °F (1945)
Min Temperature 37 °F 47 °F 24 °F (1959)
Degree Days  
Heating Degree Days 8 8  
Month to date heating degree days 41  
Since 1 July heating degree days 145  
Cooling Degree Days 0 1  
Month to date cooling degree days 8  
Year to date cooling degree days 2397  
Growing Degree Days 8 (Base 50)    
Moisture  
Dew Point 36 °F    
Average Humidity 51    
Maximum Humidity 81    
Minimum Humidity 21    
Precipitation  
Precipitation 0.00 in 0.06 in 1.13 in (1925)
Month to date precipitation 0.38  
Year to date precipitation 22.56  
Sea Level Pressure  
Sea Level Pressure 30.14 in    
Wind  
Wind Speed 2 mph (WSW)    
Max Wind Speed 12 mph    
Max Gust Speed 18 mph    
Visibility 10 miles    
Events      
T = Trace of Precipitation, MM = Missing Value Source: NWS Daily Summary

Daily Weather History Graph

Daily Weather History Graph

Search for Another Location

Airport:

Trip Planner

Search our weather history database for the weather conditions in past years. The results will help you decide how hot, cold, wet, or windy it might be!

Date:

Astronomy

Nov. 06, 2012 Rise Set
Actual Time 6:56 AM CST 5:41 PM CST
Civil Twilight 6:31 AM CST 6:07 PM CST
Nautical Twilight 6:02 AM CST 6:36 PM CST
Astronomical Twilight 5:33 AM CST 7:04 PM CST
Moon No Moon Rise 12:52 PM CST (11/6)
Length of Visible Light 11h 35m
Length of Day
10h 45m
Waning Gibbous, 53% of the Moon is Illuminated
Nov 6
Waning Gibbous
Nov 6
Last Quarter
Nov 13
New
Nov 20
First Quarter
Nov 28
Full

Hourly Weather History & Observations

Time (CST) Temp. Windchill Dew Point Humidity Pressure Visibility Wind Dir Wind Speed Gust Speed Precip Events Conditions
12:15 AM 48.2 °F - 35.6 °F 62% 30.14 in 10.0 mi Calm Calm - N/A   Clear
12:35 AM 46.4 °F - 33.8 °F 62% 30.13 in 10.0 mi Calm Calm - N/A   Clear
12:55 AM 44.6 °F - 35.6 °F 71% 30.13 in 10.0 mi Calm Calm - N/A   Clear
1:15 AM 44.6 °F - 33.8 °F 66% 30.13 in 10.0 mi Calm Calm - N/A   Clear
1:35 AM 42.8 °F - 33.8 °F 70% 30.12 in 10.0 mi Calm Calm - N/A   Clear
1:55 AM 42.8 °F - 35.6 °F 76% 30.13 in 10.0 mi Calm Calm - N/A   Clear
2:15 AM 42.8 °F - 33.8 °F 70% 30.13 in 10.0 mi Calm Calm - N/A   Clear
2:35 AM 41.0 °F - 32.0 °F 70% 30.13 in 10.0 mi Calm Calm - N/A   Clear
2:55 AM 44.6 °F - 35.6 °F 71% 30.14 in 10.0 mi Calm Calm - N/A   Clear
3:15 AM 41.0 °F 39.0 °F 33.8 °F 76% 30.14 in 10.0 mi North 3.5 mph - N/A   Clear
3:35 AM 41.0 °F - 32.0 °F 70% 30.13 in 10.0 mi Calm Calm - N/A   Clear
3:55 AM 39.2 °F - 32.0 °F 75% 30.13 in 10.0 mi Calm Calm - N/A   Clear
4:15 AM 41.0 °F 38.0 °F 33.8 °F 76% 30.13 in 10.0 mi NE 4.6 mph - N/A   Clear
4:35 AM 42.8 °F - 33.8 °F 70% 30.13 in 10.0 mi Calm Calm - N/A   Clear
4:55 AM 41.0 °F - 32.0 °F 70% 30.13 in 10.0 mi Calm Calm - N/A   Clear
5:15 AM 42.8 °F - 33.8 °F 70% 30.14 in 10.0 mi Calm Calm - N/A   Clear
5:35 AM 39.2 °F - 32.0 °F 75% 30.14 in 10.0 mi Calm Calm - N/A   Clear
5:55 AM 39.2 °F - 32.0 °F 75% 30.14 in 10.0 mi Calm Calm - N/A   Clear
6:15 AM 37.4 °F - 32.0 °F 81% 30.15 in 10.0 mi Calm Calm - N/A   Clear
6:35 AM 37.4 °F - 32.0 °F 81% 30.16 in 10.0 mi Calm Calm - N/A   Clear
6:55 AM 37.4 °F - 32.0 °F 81% 30.16 in 10.0 mi Calm Calm - N/A   Clear
7:15 AM 39.2 °F - 33.8 °F 81% 30.18 in 9.0 mi Calm Calm - N/A   Clear
7:35 AM 41.0 °F - 33.8 °F 76% 30.18 in 8.0 mi Calm Calm - N/A   Clear
7:55 AM 44.6 °F - 35.6 °F 71% 30.19 in 6.0 mi Calm Calm - N/A   Haze
8:15 AM 46.4 °F - 35.6 °F 66% 30.19 in 10.0 mi Calm Calm - N/A   Clear
8:55 AM 53.6 °F - 37.4 °F 54% 30.20 in 10.0 mi South 4.6 mph - N/A   Clear
9:15 AM 57.2 °F - 37.4 °F 48% 30.20 in 10.0 mi South 3.5 mph - N/A   Clear
9:35 AM 59.0 °F - 35.6 °F 42% 30.20 in 10.0 mi SSW 6.9 mph - N/A   Clear
9:55 AM 62.6 °F - 35.6 °F 37% 30.20 in 10.0 mi SSW 8.1 mph - N/A   Clear
10:15 AM 62.6 °F - 35.6 °F 37% 30.20 in 10.0 mi SSW 6.9 mph - N/A   Clear
10:35 AM 64.4 °F - 33.8 °F 32% 30.20 in 10.0 mi South 9.2 mph - N/A   Clear
10:55 AM 66.2 °F - 35.6 °F 32% 30.20 in 10.0 mi South 10.4 mph - N/A   Clear
11:15 AM 66.2 °F - 35.6 °F 32% 30.19 in 10.0 mi SW 4.6 mph - N/A   Clear
11:35 AM 68.0 °F - 35.6 °F 30% 30.18 in 10.0 mi South 6.9 mph - N/A   Clear
11:55 AM 69.8 °F - 37.4 °F 31% 30.17 in 10.0 mi South 8.1 mph - N/A   Clear
12:15 PM 71.6 °F - 35.6 °F 27% 30.16 in 10.0 mi WSW 8.1 mph - N/A   Clear
12:35 PM 71.6 °F - 35.6 °F 27% 30.15 in 10.0 mi SW 8.1 mph - N/A   Clear
12:55 PM 73.4 °F - 35.6 °F 25% 30.14 in 10.0 mi WSW 11.5 mph - N/A   Clear
1:15 PM 75.2 °F - 35.6 °F 24% 30.13 in 10.0 mi WSW 10.4 mph 17.3 mph N/A   Clear
1:35 PM 75.2 °F - 35.6 °F 24% 30.12 in 10.0 mi West 11.5 mph - N/A   Clear
1:55 PM 77.0 °F - 37.4 °F 24% 30.11 in 10.0 mi West 8.1 mph - N/A   Clear
2:15 PM 77.0 °F - 35.6 °F 22% 30.10 in 10.0 mi West 8.1 mph 18.4 mph N/A   Clear
2:35 PM 77.0 °F - 37.4 °F 24% 30.10 in 10.0 mi West 8.1 mph - N/A   Clear
2:55 PM 77.0 °F - 35.6 °F 22% 30.10 in 10.0 mi WNW 5.8 mph - N/A   Clear
3:15 PM 78.8 °F - 35.6 °F 21% 30.09 in 10.0 mi West 10.4 mph - N/A   Clear
3:35 PM 78.8 °F - 35.6 °F 21% 30.09 in 10.0 mi West 8.1 mph - N/A   Clear
3:55 PM 78.8 °F - 35.6 °F 21% 30.09 in 10.0 mi WNW 5.8 mph - N/A   Clear
4:15 PM 78.8 °F - 35.6 °F 21% 30.09 in 10.0 mi NW 8.1 mph - N/A   Clear
4:35 PM 77.0 °F - 37.4 °F 24% 30.09 in 10.0 mi WNW 8.1 mph - N/A   Clear
4:55 PM 77.0 °F - 37.4 °F 24% 30.09 in 10.0 mi West 6.9 mph - N/A   Clear
5:15 PM 75.2 °F - 37.4 °F 25% 30.09 in 10.0 mi West 3.5 mph - N/A   Clear
5:35 PM 73.4 °F - 39.2 °F 29% 30.09 in 10.0 mi Calm Calm - N/A   Clear
5:55 PM 68.0 °F - 39.2 °F 35% 30.10 in 10.0 mi Calm Calm - N/A   Clear
6:15 PM 66.2 °F - 39.2 °F 37% 30.10 in 10.0 mi Calm Calm - N/A   Clear
6:35 PM 62.6 °F - 39.2 °F 42% 30.11 in 10.0 mi Calm Calm - N/A   Clear
6:55 PM 59.0 °F - 39.2 °F 48% 30.11 in 10.0 mi Calm Calm - N/A   Clear
7:15 PM 59.0 °F - 39.2 °F 48% 30.12 in 10.0 mi Calm Calm - N/A   Clear
7:35 PM 57.2 °F - 39.2 °F 51% 30.12 in 10.0 mi Calm Calm - N/A   Clear
7:55 PM 55.4 °F - 37.4 °F 51% 30.13 in 10.0 mi Calm Calm - N/A   Clear
8:15 PM 55.4 °F - 37.4 °F 51% 30.13 in 10.0 mi Calm Calm - N/A   Clear
8:55 PM 55.4 °F - 39.2 °F 54% 30.14 in 10.0 mi Calm Calm - N/A   Clear
9:15 PM 53.6 °F - 37.4 °F 54% 30.14 in 10.0 mi Calm Calm - N/A   Clear
9:35 PM 51.8 °F - 37.4 °F 58% 30.14 in 10.0 mi Calm Calm - N/A   Clear
9:55 PM 50.0 °F - 37.4 °F 62% 30.14 in 10.0 mi Calm Calm - N/A   Clear
10:15 PM 48.2 °F - 35.6 °F 62% 30.14 in 10.0 mi Calm Calm - N/A   Clear
10:35 PM 50.0 °F - 37.4 °F 62% 30.14 in 10.0 mi Calm Calm - N/A   Clear
10:55 PM 46.4 °F - 35.6 °F 66% 30.14 in 10.0 mi Calm Calm - N/A   Clear
11:15 PM 48.2 °F - 37.4 °F 66% 30.15 in 10.0 mi Calm Calm - N/A   Clear
11:35 PM 46.4 °F - 35.6 °F 66% 30.16 in 10.0 mi Calm Calm - N/A   Clear
11:55 PM 46.4 °F - 35.6 °F 66% 30.16 in 10.0 mi Calm Calm - N/A   Clear